Time;durP1;ratioP1;P1;durP2;ratioP2;P2;SDS_P1;SDS_P2;PMS_P1;PMS_P2;Temp;Humidity;BMP_temperature;BMP_pressure;BME280_temperature;BME280_humidity;BME280_pressure;Samples;Min_cycle;Max_cycle;Signal;HPM_P1;HPM_P2
2024/03/19 00:02:05;;;;;;;4.90;4.07;;;2.40;99.90;;;-141.84;62.70;18547.88;5057095;28;20695;-55
2024/03/19 00:04:34;;;;;;;4.23;3.83;;;2.30;99.90;;;-141.84;62.63;18560.06;5067812;28;20224;-52
2024/03/19 00:07:01;;;;;;;5.30;4.37;;;2.30;99.90;;;-141.84;63.29;18572.25;5082931;28;20204;-52
2024/03/19 00:09:28;;;;;;;4.30;3.90;;;2.20;99.90;;;-141.84;62.80;18545.84;5083225;28;20196;-53
2024/03/19 00:11:55;;;;;;;3.97;3.57;;;2.30;99.90;;;-141.84;63.33;18535.69;5065276;28;20241;-52
2024/03/19 00:14:22;;;;;;;5.23;3.77;;;2.20;99.90;;;-141.84;63.31;18511.31;5067713;28;20228;-53
2024/03/19 00:16:50;;;;;;;4.47;3.90;;;2.20;99.90;;;-141.84;63.61;18537.72;5056505;28;20692;-51
2024/03/19 00:19:18;;;;;;;5.03;3.60;;;2.10;99.90;;;-141.84;63.30;18545.84;5064729;28;20743;-54
2024/03/19 00:21:46;;;;;;;7.37;3.97;;;2.10;99.90;;;-141.84;63.41;18525.53;5054089;28;20201;-52
2024/03/19 00:24:14;;;;;;;4.30;3.90;;;2.10;99.90;;;-141.84;63.49;18533.66;5064592;28;20224;-52
2024/03/19 00:26:41;;;;;;;5.03;3.90;;;2.10;99.90;;;-141.84;63.10;18533.66;5073936;28;20234;-55
2024/03/19 00:29:08;;;;;;;5.50;4.20;;;2.20;99.90;;;-141.84;62.67;18531.63;5088261;28;20233;-55
2024/03/19 00:31:35;;;;;;;4.87;4.00;;;2.20;99.90;;;-141.84;63.19;18517.41;5079153;28;20758;-55
2024/03/19 00:34:03;;;;;;;4.83;4.20;;;2.20;99.90;;;-141.84;62.83;18537.72;5077971;28;20228;-52
2024/03/19 00:36:30;;;;;;;5.57;4.10;;;2.20;99.90;;;-141.84;63.31;18535.69;5059546;28;20205;-53
2024/03/19 00:38:58;;;;;;;5.40;4.50;;;2.10;99.90;;;-141.84;63.82;18537.72;5075863;28;20255;-51
2024/03/19 00:41:26;;;;;;;5.00;3.90;;;2.00;99.90;;;-141.84;64.08;18521.47;5079316;28;20597;-52
2024/03/19 00:43:54;;;;;;;4.27;3.87;;;2.00;99.90;;;-141.84;65.09;18499.13;5078046;28;20217;-49
2024/03/19 00:46:22;;;;;;;4.67;4.17;;;2.00;99.90;;;-141.84;64.85;18507.25;5061083;28;20224;-52
2024/03/19 00:48:49;;;;;;;5.90;4.40;;;1.90;99.90;;;-141.84;64.13;18527.56;5061191;28;20204;-52
2024/03/19 00:51:16;;;;;;;5.83;4.37;;;2.00;99.90;;;-141.84;64.48;18547.88;5072809;28;20573;-50
2024/03/19 00:53:43;;;;;;;5.73;4.57;;;2.00;99.90;;;-141.84;64.17;18503.19;5063091;28;20229;-48
2024/03/19 00:56:12;;;;;;;5.90;4.10;;;2.00;99.90;;;-141.84;64.15;18527.56;5058983;28;20224;-50
2024/03/19 00:58:39;;;;;;;4.20;3.80;;;2.00;99.90;;;-141.84;64.42;18501.16;5069063;28;20213;-53
2024/03/19 01:01:06;;;;;;;5.37;4.47;;;2.00;99.90;;;-141.84;65.03;18523.50;5064620;28;20212;-53
2024/03/19 01:03:34;;;;;;;6.67;4.37;;;2.00;99.90;;;-141.84;64.41;18511.31;5071567;28;20635;-52
2024/03/19 01:06:01;;;;;;;7.73;4.27;;;2.00;99.90;;;-141.84;64.82;18474.75;5080823;28;20725;-49
2024/03/19 01:08:29;;;;;;;5.63;4.50;;;2.00;99.90;;;-141.84;64.43;18529.59;5068155;28;20224;-53
2024/03/19 01:11:02;;;;;;;7.63;4.40;;;2.00;99.90;;;-141.84;63.85;18519.44;5058675;28;20298;-51
2024/03/19 01:13:31;;;;;;;5.73;4.30;;;2.00;99.90;;;-141.84;64.48;18509.28;5065798;28;20220;-52
2024/03/19 01:15:58;;;;;;;5.13;4.63;;;2.00;99.90;;;-141.84;64.32;18511.31;5081339;28;20348;-54
2024/03/19 01:18:26;;;;;;;6.10;4.27;;;2.00;99.90;;;-141.84;64.22;18527.56;5075729;28;20255;-53
2024/03/19 01:20:53;;;;;;;6.10;4.53;;;2.00;99.90;;;-141.84;64.63;18509.28;5080725;28;20244;-53
2024/03/19 01:23:21;;;;;;;6.90;4.53;;;2.00;99.90;;;-141.84;64.85;18527.56;5071503;28;20874;-50
2024/03/19 01:25:48;;;;;;;7.03;4.73;;;2.00;99.90;;;-141.84;63.53;18495.06;5058846;28;20237;-53
2024/03/19 01:28:16;;;;;;;6.00;4.33;;;2.10;99.90;;;-141.84;64.30;18497.09;5065143;28;20354;-51
2024/03/19 01:30:44;;;;;;;4.30;3.90;;;2.00;99.90;;;-141.84;65.87;18493.03;5082381;28;20205;-48
2024/03/19 01:33:12;;;;;;;6.03;4.20;;;1.80;99.90;;;-141.84;66.98;18484.91;5079950;28;20220;-52
2024/03/19 01:35:39;;;;;;;5.47;4.10;;;1.70;99.90;;;-141.84;67.22;18493.03;5080873;28;20242;-48
2024/03/19 01:38:06;;;;;;;6.57;5.67;;;1.60;99.90;;;-141.84;67.38;18493.03;5064590;28;20226;-52
2024/03/19 01:40:34;;;;;;;5.80;4.60;;;1.60;99.90;;;-141.84;67.38;18493.03;5067916;28;20276;-56
2024/03/19 01:43:01;;;;;;;4.87;4.27;;;1.60;99.90;;;-141.84;68.39;18529.59;5078286;28;20574;-51
2024/03/19 01:45:29;;;;;;;7.67;4.50;;;1.50;99.90;;;-141.84;67.09;18482.88;5053559;28;20190;-51
2024/03/19 01:47:57;;;;;;;8.00;4.80;;;1.60;99.90;;;-141.84;67.92;18531.63;5060182;28;20220;-52
2024/03/19 01:50:26;;;;;;;4.70;4.30;;;1.50;99.90;;;-141.84;68.64;18497.09;5072899;28;20220;-51
2024/03/19 01:52:54;;;;;;;6.23;4.40;;;1.50;99.90;;;-141.84;68.46;18511.31;5080564;28;20232;-50
2024/03/19 01:55:23;;;;;;;7.97;4.70;;;1.50;99.90;;;-141.84;67.31;18495.06;5077368;28;20294;-48
2024/03/19 01:57:53;;;;;;;6.60;4.73;;;1.60;99.90;;;-141.84;66.74;18497.09;5061317;28;20200;-54
2024/03/19 02:00:20;;;;;;;6.57;5.00;;;1.60;99.90;;;-141.84;66.40;18458.50;5059926;28;20227;-51
2024/03/19 02:02:47;;;;;;;7.53;4.90;;;1.70;99.90;;;-141.84;66.28;18519.44;5077149;28;20212;-50
2024/03/19 02:05:16;;;;;;;6.30;4.50;;;1.70;99.90;;;-141.84;66.78;18460.53;5068037;28;20217;-49
2024/03/19 02:07:43;;;;;;;4.97;4.47;;;1.60;99.90;;;-141.84;66.38;18464.59;5064830;28;20228;-53
2024/03/19 02:10:11;;;;;;;6.13;5.30;;;1.70;99.90;;;-141.84;66.64;18495.06;5080727;28;20644;-53
2024/03/19 02:12:38;;;;;;;5.87;4.47;;;1.70;99.90;;;-141.84;66.89;18474.75;5084750;28;20240;-53
2024/03/19 02:15:06;;;;;;;7.30;4.73;;;1.70;99.90;;;-141.84;67.14;18509.28;5065906;28;20217;-51
2024/03/19 02:17:33;;;;;;;6.07;4.73;;;1.70;99.90;;;-141.84;66.47;18491.00;5064007;28;20224;-50
2024/03/19 02:20:01;;;;;;;7.70;4.53;;;1.80;99.90;;;-141.84;66.45;18505.22;5061484;28;20225;-50
2024/03/19 02:22:30;;;;;;;7.13;4.63;;;1.80;99.90;;;-141.84;65.84;18491.00;5064886;28;20645;-48
2024/03/19 02:24:57;;;;;;;6.50;5.50;;;1.90;99.90;;;-141.84;65.64;18468.66;5063694;28;20203;-52
2024/03/19 02:27:24;;;;;;;7.60;4.60;;;1.90;99.90;;;-141.84;64.34;18476.78;5064374;28;20249;-53
2024/03/19 02:29:51;;;;;;;6.87;4.83;;;2.10;99.90;;;-141.84;63.94;18470.69;5078735;28;20215;-51
2024/03/19 02:32:19;;;;;;;5.67;5.00;;;2.10;99.90;;;-141.84;64.17;18458.50;5081492;28;20542;-50
2024/03/19 02:34:46;;;;;;;6.10;4.87;;;2.10;99.90;;;-141.84;64.59;18480.84;5081184;28;20225;-54
2024/03/19 02:37:13;;;;;;;5.23;4.47;;;2.10;99.90;;;-141.84;64.88;18476.78;5063144;28;20212;-52
2024/03/19 02:39:42;;;;;;;6.40;4.70;;;2.10;99.90;;;-141.84;64.79;18517.41;5057496;28;20211;-51
2024/03/19 02:42:09;;;;;;;5.70;4.73;;;2.10;99.90;;;-141.84;64.70;18509.28;5083706;28;20672;-53
2024/03/19 02:44:36;;;;;;;5.63;5.00;;;2.10;99.90;;;-141.84;65.13;18480.84;5082479;28;20220;-52
2024/03/19 02:47:04;;;;;;;6.57;5.17;;;2.10;99.90;;;-141.84;64.17;18470.69;5075202;28;20604;-51
2024/03/19 02:49:31;;;;;;;8.30;5.57;;;2.20;99.90;;;-141.84;64.61;18501.16;5059672;28;20789;-50
2024/03/19 02:51:59;;;;;;;5.60;5.00;;;2.20;99.90;;;-141.84;64.73;18480.84;5063619;28;20202;-50
2024/03/19 02:54:26;;;;;;;6.07;4.97;;;2.20;99.90;;;-141.84;65.28;18513.34;5059842;28;20237;-52
2024/03/19 02:56:55;;;;;;;6.23;4.70;;;2.20;99.90;;;-141.84;65.93;18493.03;5076231;28;20235;-52
2024/03/19 02:59:23;;;;;;;6.97;4.73;;;2.10;99.90;;;-141.84;65.85;18488.97;5083187;28;20225;-50
2024/03/19 03:01:50;;;;;;;6.93;5.13;;;2.00;99.90;;;-141.84;65.55;18505.22;5074070;28;20690;-53
2024/03/19 03:04:17;;;;;;;5.80;5.20;;;2.10;99.90;;;-141.84;65.63;18511.31;5062877;28;20223;-47
2024/03/19 03:06:44;;;;;;;5.80;5.20;;;2.10;99.90;;;-141.84;66.09;18505.22;5083799;28;20711;-53
2024/03/19 03:09:12;;;;;;;6.07;5.00;;;2.00;99.90;;;-141.84;65.98;18482.88;5083267;28;20220;-51
2024/03/19 03:11:39;;;;;;;5.30;4.70;;;1.90;99.90;;;-141.84;66.09;18468.66;5067907;28;20313;-52
2024/03/19 03:14:08;;;;;;;5.67;5.17;;;1.90;99.90;;;-141.84;66.38;18486.94;5062205;28;20661;-51
2024/03/19 03:16:35;;;;;;;6.27;5.33;;;1.90;99.90;;;-141.84;65.67;18478.81;5066605;28;20713;-52
2024/03/19 03:19:03;;;;;;;5.67;4.97;;;1.90;99.90;;;-141.84;66.52;18484.91;5059792;28;20561;-53
2024/03/19 03:21:30;;;;;;;7.10;5.00;;;1.90;99.90;;;-141.84;66.17;18460.53;5067640;28;20201;-51
2024/03/19 03:23:58;;;;;;;8.90;5.30;;;1.90;99.90;;;-141.84;67.20;18472.72;5064119;28;20228;-49
2024/03/19 03:26:25;;;;;;;6.60;5.37;;;1.80;99.90;;;-141.84;67.08;18488.97;5052112;28;20220;-53
2024/03/19 03:28:52;;;;;;;7.20;5.37;;;1.80;99.90;;;-141.84;67.33;18493.03;5060186;28;20250;-52
2024/03/19 03:31:21;;;;;;;6.27;5.10;;;1.70;99.90;;;-141.84;67.28;18454.44;5060429;28;20227;-49
2024/03/19 03:33:49;;;;;;;6.83;5.47;;;1.80;99.90;;;-141.84;67.07;18480.84;5091684;28;20212;-52
2024/03/19 03:36:16;;;;;;;6.33;5.33;;;1.80;99.90;;;-141.84;66.58;18466.63;5062696;28;20606;-51
2024/03/19 03:38:44;;;;;;;8.17;5.77;;;1.80;99.90;;;-141.84;67.10;18466.63;5062875;28;20216;-50
2024/03/19 03:41:11;;;;;;;6.10;4.93;;;1.80;99.90;;;-141.84;67.92;18501.16;5073354;28;20228;-49
2024/03/19 03:43:38;;;;;;;6.83;5.50;;;1.70;99.90;;;-141.84;68.32;18511.31;5080358;28;20227;-52
2024/03/19 03:46:05;;;;;;;7.20;5.27;;;1.70;99.90;;;-141.84;69.09;18484.91;5080234;28;20577;-53
2024/03/19 03:48:34;;;;;;;7.13;5.30;;;1.60;99.90;;;-141.84;69.15;18497.09;5062605;28;20258;-48
2024/03/19 03:51:02;;;;;;;6.53;5.40;;;1.60;99.90;;;-141.84;69.92;18513.34;5084257;28;20224;-50
2024/03/19 03:53:29;;;;;;;7.30;5.77;;;1.50;99.90;;;-141.84;70.39;18460.53;5077985;28;20220;-51
2024/03/19 03:55:56;;;;;;;8.83;6.00;;;1.40;99.90;;;-141.84;70.73;18533.66;5072985;28;20769;-50
2024/03/19 03:58:23;;;;;;;9.10;5.80;;;1.40;99.90;;;-141.84;71.23;18505.22;5062692;28;20238;-51
2024/03/19 04:00:51;;;;;;;7.53;5.60;;;1.30;99.90;;;-141.84;71.98;18511.31;5062905;28;20204;-47
2024/03/19 04:03:19;;;;;;;9.50;6.03;;;1.30;99.90;;;-141.84;71.26;18497.09;5062024;28;20220;-52
2024/03/19 04:05:49;;;;;;;9.13;6.20;;;1.20;99.90;;;-141.84;71.59;18509.28;5053767;28;20278;-53
2024/03/19 04:08:18;;;;;;;7.53;5.87;;;1.20;99.90;;;-141.84;72.62;18519.44;5065363;28;20259;-51
2024/03/19 04:10:45;;;;;;;7.30;5.77;;;1.20;99.90;;;-141.84;72.87;18527.56;5059529;28;20225;-53
2024/03/19 04:13:12;;;;;;;8.20;5.50;;;1.20;99.90;;;-141.84;71.73;18499.13;5057548;28;20196;-53
2024/03/19 04:15:40;;;;;;;7.57;5.47;;;1.30;99.90;;;-141.84;72.10;18480.84;5085035;28;20254;-55
2024/03/19 04:18:07;;;;;;;7.17;6.17;;;1.20;99.90;;;-141.84;73.22;18529.59;5079735;28;20216;-52
2024/03/19 04:20:35;;;;;;;7.67;5.57;;;1.20;99.90;;;-141.84;73.10;18525.53;5062007;28;20588;-53
2024/03/19 04:23:04;;;;;;;7.37;6.27;;;1.20;99.90;;;-141.84;72.80;18511.31;5071342;28;20216;-54
2024/03/19 04:25:31;;;;;;;7.87;5.80;;;1.20;99.90;;;-141.84;72.44;18501.16;5080092;28;20927;-53
2024/03/19 04:27:59;;;;;;;8.50;6.17;;;1.20;99.90;;;-141.84;71.46;18464.59;5055052;28;20201;-49
2024/03/19 04:30:26;;;;;;;6.63;5.90;;;1.20;99.90;;;-141.84;71.47;18442.25;5083105;28;20209;-51
2024/03/19 04:32:54;;;;;;;8.17;6.23;;;1.30;99.90;;;-141.84;72.08;18454.44;5079476;28;20725;-53
2024/03/19 04:35:21;;;;;;;8.97;5.97;;;1.20;99.90;;;-141.84;72.26;18476.78;5073054;28;20262;-53
2024/03/19 04:37:49;;;;;;;8.30;6.17;;;1.20;99.90;;;-141.84;72.02;18458.50;5050730;28;20224;-51
2024/03/19 04:40:17;;;;;;;7.67;5.90;;;1.20;99.90;;;-141.84;70.92;18452.41;5058819;28;20278;-53
2024/03/19 04:42:44;;;;;;;7.60;6.17;;;1.20;99.90;;;-141.84;72.63;18501.16;5055066;28;20269;-52
2024/03/19 04:45:12;;;;;;;7.60;5.80;;;1.10;99.90;;;-141.84;73.23;18493.03;5081880;28;20216;-53
2024/03/19 04:47:40;;;;;;;8.33;6.10;;;1.10;99.90;;;-141.84;72.44;18486.94;5088290;28;20220;-52
2024/03/19 04:50:08;;;;;;;6.90;5.87;;;1.10;99.90;;;-141.84;72.64;18503.19;5071939;28;20228;-54
2024/03/19 04:52:35;;;;;;;7.73;6.30;;;1.10;99.90;;;-141.84;72.80;18488.97;5071621;28;20792;-53
2024/03/19 04:55:02;;;;;;;9.40;7.10;;;1.10;99.90;;;-141.84;72.41;18493.03;5079185;28;20943;-49
2024/03/19 04:57:31;;;;;;;8.47;6.37;;;1.10;99.90;;;-141.84;73.34;18460.53;5086317;28;20197;-51
2024/03/19 04:59:58;;;;;;;10.07;7.40;;;1.10;99.90;;;-141.84;73.59;18491.00;5062011;28;20632;-51
2024/03/19 05:02:26;;;;;;;9.63;6.73;;;1.10;99.90;;;-141.84;72.59;18466.63;5068724;28;20220;-49
2024/03/19 05:04:53;;;;;;;8.87;6.60;;;1.10;99.90;;;-141.84;72.63;18476.78;5068861;28;20219;-52
2024/03/19 05:07:20;;;;;;;8.40;6.63;;;1.10;99.90;;;-141.84;70.82;18423.94;5081360;28;20224;-51
2024/03/19 05:09:48;;;;;;;8.30;6.33;;;1.20;99.90;;;-141.84;71.32;18428.03;5080094;28;20204;-53
2024/03/19 05:12:15;;;;;;;8.87;6.87;;;1.20;99.90;;;-141.84;71.41;18456.47;5060835;28;20926;-51
2024/03/19 05:14:44;;;;;;;9.93;7.00;;;1.20;99.90;;;-141.84;71.94;18438.19;5068318;28;20630;-52
2024/03/19 05:17:11;;;;;;;8.93;6.57;;;1.10;99.90;;;-141.84;71.73;18440.22;5076509;28;20610;-53
2024/03/19 05:19:38;;;;;;;7.90;6.80;;;1.20;99.90;;;-141.84;72.42;18454.44;5058350;28;20230;-51
2024/03/19 05:22:06;;;;;;;8.77;6.93;;;1.10;99.90;;;-141.84;71.85;18448.34;5059358;28;20201;-52
2024/03/19 05:24:33;;;;;;;8.77;7.00;;;1.20;99.90;;;-141.84;72.00;18464.59;5087845;28;20208;-48
2024/03/19 05:27:01;;;;;;;9.27;6.83;;;1.10;99.90;;;-141.84;72.47;18436.16;5085006;28;20222;-54
2024/03/19 05:29:28;;;;;;;9.03;7.27;;;1.10;99.90;;;-141.84;73.55;18499.13;5064865;28;20266;-52
2024/03/19 05:31:56;;;;;;;10.13;7.47;;;1.00;99.90;;;-141.84;73.18;18432.09;5058010;28;20237;-51
2024/03/19 05:34:24;;;;;;;11.70;7.43;;;1.10;99.90;;;-141.84;72.59;18452.41;5055001;28;20226;-50
2024/03/19 05:36:51;;;;;;;9.57;7.23;;;1.00;99.90;;;-141.84;72.19;18446.31;5061555;28;20225;-51
2024/03/19 05:39:19;;;;;;;9.43;6.83;;;1.10;99.90;;;-141.84;72.38;18452.41;5060211;28;20217;-52
2024/03/19 05:41:46;;;;;;;8.73;7.27;;;1.10;99.90;;;-141.84;73.08;18460.53;5060288;28;20274;-50
2024/03/19 05:44:14;;;;;;;9.33;7.10;;;1.00;99.90;;;-141.84;72.12;18468.66;5070563;28;20223;-52
2024/03/19 05:46:41;;;;;;;9.03;7.33;;;1.00;99.90;;;-141.84;71.94;18446.31;5067167;28;20243;-49
2024/03/19 05:49:11;;;;;;;11.30;6.97;;;1.10;99.90;;;-141.84;70.03;18403.63;5056651;28;20200;-51
2024/03/19 05:51:38;;;;;;;8.97;6.77;;;1.20;99.90;;;-141.84;70.41;18409.72;5080934;28;20215;-53
2024/03/19 05:54:06;;;;;;;8.67;7.00;;;1.30;99.90;;;-141.84;70.54;18446.31;5085619;28;20224;-54
2024/03/19 05:56:33;;;;;;;11.13;6.97;;;1.30;99.90;;;-141.84;70.37;18442.25;5077661;28;20227;-48
2024/03/19 05:59:00;;;;;;;11.93;7.67;;;1.30;99.90;;;-141.84;70.46;18438.19;5077960;28;20213;-53
2024/03/19 06:01:28;;;;;;;10.63;6.97;;;1.40;99.90;;;-141.84;69.54;18442.25;5077502;28;20880;-48
2024/03/19 06:03:55;;;;;;;9.37;7.37;;;1.40;99.90;;;-141.84;69.30;18425.97;5078201;28;20201;-49
2024/03/19 06:06:24;;;;;;;11.23;7.27;;;1.40;99.90;;;-141.84;69.32;18456.47;5060226;28;20235;-53
2024/03/19 06:08:51;;;;;;;11.90;7.20;;;1.50;99.90;;;-141.84;70.05;18423.94;5073630;28;20228;-48
2024/03/19 06:11:18;;;;;;;9.67;6.90;;;1.50;99.90;;;-141.84;69.31;18456.47;5077223;28;20688;-50
2024/03/19 06:13:46;;;;;;;11.67;7.23;;;1.50;99.90;;;-141.84;68.92;18430.06;5076902;28;20225;-53
2024/03/19 06:16:13;;;;;;;9.60;6.80;;;1.50;99.90;;;-141.84;69.43;18428.03;5059652;28;20868;-51
2024/03/19 06:18:40;;;;;;;9.30;7.13;;;1.50;99.90;;;-141.84;69.09;18417.84;5078108;28;20676;-54
2024/03/19 06:21:07;;;;;;;13.93;6.83;;;1.50;99.90;;;-141.84;68.74;18428.03;5079479;28;20222;-52
2024/03/19 06:23:36;;;;;;;8.73;7.03;;;1.60;99.90;;;-141.84;68.75;18452.41;5081185;28;20217;-53
2024/03/19 06:26:04;;;;;;;12.93;6.63;;;1.60;99.90;;;-141.84;69.02;18446.31;5077530;28;20416;-52
2024/03/19 06:28:31;;;;;;;7.93;6.80;;;1.70;99.90;;;-141.84;67.98;18423.94;5076639;28;20715;-49
2024/03/19 06:30:58;;;;;;;9.67;6.90;;;1.70;99.90;;;-141.84;67.05;18440.22;5058194;28;20205;-50
2024/03/19 06:33:25;;;;;;;10.37;7.23;;;1.90;99.90;;;-141.84;66.58;18411.75;5075911;28;20200;-52
2024/03/19 06:35:52;;;;;;;8.23;6.93;;;1.90;99.90;;;-141.84;66.85;18444.28;5079377;28;20556;-54
2024/03/19 06:38:20;;;;;;;10.87;7.43;;;2.00;99.90;;;-141.84;67.01;18438.19;5076259;28;20224;-49
2024/03/19 06:40:49;;;;;;;11.13;7.20;;;2.10;99.90;;;-141.84;66.73;18411.75;5066808;28;20254;-50
2024/03/19 06:43:16;;;;;;;8.00;6.87;;;2.10;99.90;;;-141.84;66.60;18421.91;5078050;28;20240;-52
2024/03/19 06:45:43;;;;;;;12.53;7.33;;;2.10;99.90;;;-141.84;66.93;18450.38;5055500;28;20230;-53
2024/03/19 06:48:11;;;;;;;10.73;7.13;;;2.20;99.90;;;-141.84;66.08;18446.31;5078346;28;20224;-49
2024/03/19 06:50:38;;;;;;;10.37;7.33;;;2.40;99.90;;;-141.84;65.60;18440.22;5067780;28;20229;-53
2024/03/19 06:53:05;;;;;;;12.23;7.63;;;2.40;99.90;;;-141.84;64.94;18438.19;5065803;28;20266;-50
2024/03/19 06:55:32;;;;;;;10.67;7.00;;;2.60;99.90;;;-141.84;63.52;18462.56;5078109;28;20238;-50
2024/03/19 06:58:01;;;;;;;11.60;7.80;;;2.60;99.90;;;-141.84;63.85;18468.66;5061991;28;20208;-53
2024/03/19 07:00:29;;;;;;;9.70;7.03;;;2.70;99.90;;;-141.84;63.80;18454.44;5077138;28;20200;-51
2024/03/19 07:02:57;;;;;;;15.03;7.03;;;2.80;99.90;;;-141.84;62.84;18460.53;5084949;28;20247;-53
2024/03/19 07:05:24;;;;;;;10.00;7.63;;;3.00;99.90;;;-141.84;62.03;18478.81;5081508;28;20781;-53
2024/03/19 07:07:54;;;;;;;10.50;6.80;;;3.10;99.90;;;-141.84;61.63;18456.47;5075198;28;20236;-53
2024/03/19 07:10:24;;;;;;;9.07;7.10;;;3.20;99.90;;;-141.84;60.47;18491.00;5064450;28;20224;-52
2024/03/19 07:12:51;;;;;;;9.27;6.87;;;3.40;99.90;;;-141.84;59.39;18509.28;5083054;28;20589;-54
2024/03/19 07:15:20;;;;;;;10.13;6.87;;;3.40;99.90;;;-141.84;59.50;18488.97;5059427;28;20218;-54
2024/03/19 07:17:49;;;;;;;11.07;7.53;;;3.50;99.90;;;-141.84;59.28;18495.06;5075905;28;20342;-53
2024/03/19 07:20:18;;;;;;;8.53;7.07;;;3.60;99.90;;;-141.84;59.43;18505.22;5080490;28;20227;-53
2024/03/19 07:22:47;;;;;;;11.07;6.80;;;3.60;99.90;;;-141.84;59.14;18517.41;5081914;28;20221;-51
2024/03/19 07:25:15;;;;;;;8.73;6.97;;;3.80;99.90;;;-141.84;59.17;18529.59;5083023;28;20199;-51
2024/03/19 07:27:43;;;;;;;10.67;7.27;;;3.90;99.90;;;-141.84;57.56;18547.88;5080967;28;20590;-51
2024/03/19 07:30:13;;;;;;;10.37;7.37;;;4.10;99.90;;;-141.84;57.16;18547.88;5062740;28;20248;-49
2024/03/19 07:32:44;;;;;;;8.03;7.20;;;4.20;99.90;;;-141.84;57.41;18537.72;5076574;28;20349;-51
2024/03/19 07:35:12;;;;;;;9.57;6.67;;;4.20;99.90;;;-141.84;57.20;18558.03;5080362;28;20221;-52
2024/03/19 07:37:40;;;;;;;8.47;6.60;;;4.20;99.90;;;-141.84;57.08;18535.69;5079948;28;20261;-52
2024/03/19 07:40:10;;;;;;;8.93;7.20;;;4.20;99.90;;;-141.84;57.05;18515.38;5061430;28;20211;-52
2024/03/19 07:42:38;;;;;;;9.57;7.27;;;4.20;99.90;;;-141.84;56.40;18525.53;5056969;28;20203;-52
2024/03/19 07:45:07;;;;;;;8.73;6.57;;;4.20;99.90;;;-141.84;56.45;18562.09;5081589;28;20230;-54
2024/03/19 07:47:35;;;;;;;10.07;7.17;;;4.30;99.90;;;-141.84;56.03;18551.94;5081837;28;20234;-53
2024/03/19 07:50:08;;;;;;;7.90;7.10;;;4.60;99.90;;;-141.84;55.48;18560.06;5070858;28;20219;-53
2024/03/19 07:52:35;;;;;;;10.50;7.17;;;4.70;99.90;;;-141.84;54.33;18568.19;5073669;28;20235;-54
2024/03/19 07:55:04;;;;;;;9.40;6.60;;;5.00;99.90;;;-141.84;52.10;18627.13;5072936;28;20695;-54
2024/03/19 07:57:31;;;;;;;7.90;5.90;;;5.20;99.90;;;-141.84;52.43;18631.19;5082928;28;20622;-53
2024/03/19 08:00:09;;;;;;;9.27;6.80;;;5.40;99.90;;;-141.84;51.80;18647.44;5064706;28;20274;-54
2024/03/19 08:02:38;;;;;;;6.57;5.93;;;5.50;99.90;;;-141.84;51.61;18633.22;5079129;28;20270;-50
2024/03/19 08:05:08;;;;;;;9.67;6.63;;;5.60;99.90;;;-141.84;51.43;18647.44;5067439;28;20225;-49
2024/03/19 08:07:37;;;;;;;8.47;6.60;;;5.90;99.90;;;-141.84;50.38;18684.00;5066814;28;20225;-54
2024/03/19 08:10:05;;;;;;;8.77;7.03;;;6.00;99.90;;;-141.84;49.88;18679.94;5081218;28;20204;-51
2024/03/19 08:12:33;;;;;;;7.67;6.60;;;6.10;99.90;;;-141.84;49.56;18643.38;5082937;28;20280;-52
2024/03/19 08:15:02;;;;;;;7.23;6.13;;;6.10;99.90;;;-141.84;49.10;18692.13;5082871;28;20225;-53
2024/03/19 08:17:32;;;;;;;8.90;6.53;;;6.30;99.90;;;-141.84;48.82;18710.44;5069730;28;20233;-51
2024/03/19 08:20:00;;;;;;;8.90;6.30;;;6.30;99.90;;;-141.84;48.48;18686.03;5068386;28;20251;-54
2024/03/19 08:22:29;;;;;;;9.10;6.63;;;6.40;99.90;;;-141.84;47.70;18706.38;5081858;28;20269;-52
2024/03/19 08:24:56;;;;;;;6.97;5.87;;;6.50;99.90;;;-141.84;47.33;18722.63;5084273;28;20208;-51
2024/03/19 08:27:25;;;;;;;7.97;5.97;;;6.50;99.90;;;-141.84;47.53;18728.72;5061402;28;20196;-53
2024/03/19 08:29:53;;;;;;;7.80;6.87;;;6.70;99.90;;;-141.84;47.72;18704.31;5071221;28;20226;-53
2024/03/19 08:32:20;;;;;;;9.60;6.50;;;6.80;99.90;;;-141.84;47.43;18732.78;5083668;28;20213;-50
2024/03/19 08:34:47;;;;;;;8.13;6.53;;;6.80;99.90;;;-141.84;47.81;18732.78;5078154;28;20251;-53
2024/03/19 08:37:15;;;;;;;9.77;6.83;;;6.90;99.90;;;-141.84;46.66;18769.34;5057489;28;20228;-52
2024/03/19 08:39:43;;;;;;;7.00;6.00;;;7.00;99.90;;;-141.84;46.95;18740.91;5083328;28;20554;-53
2024/03/19 08:42:11;;;;;;;8.47;5.77;;;7.10;99.90;;;-141.84;46.14;18775.44;5079735;28;20228;-52
2024/03/19 08:44:38;;;;;;;8.67;6.63;;;7.20;99.90;;;-141.84;45.98;18773.41;5080893;28;20232;-54
2024/03/19 08:47:06;;;;;;;7.60;6.77;;;7.30;99.90;;;-141.84;46.42;18781.53;5066752;28;20271;-50
2024/03/19 08:49:33;;;;;;;7.57;6.57;;;7.40;99.90;;;-141.84;46.69;18785.59;5072139;28;20223;-51
2024/03/19 08:52:01;;;;;;;9.13;7.33;;;7.50;99.90;;;-141.84;46.42;18787.63;5077406;28;20201;-52
2024/03/19 08:54:29;;;;;;;8.03;6.87;;;7.50;99.90;;;-141.84;46.21;18830.31;5084951;28;20207;-52
2024/03/19 08:56:57;;;;;;;6.77;5.70;;;7.50;99.90;;;-141.84;45.94;18793.72;5079801;28;20228;-53
2024/03/19 08:59:25;;;;;;;8.03;6.30;;;7.60;99.90;;;-141.84;45.33;18803.88;5071643;28;20263;-48
2024/03/19 09:01:52;;;;;;;7.10;5.40;;;7.60;99.90;;;-141.84;44.59;18866.88;5058022;28;20221;-53
2024/03/19 09:04:19;;;;;;;7.80;5.00;;;7.70;99.90;;;-141.84;44.40;18834.38;5064016;28;20228;-51
2024/03/19 09:06:47;;;;;;;5.97;5.23;;;7.80;99.90;;;-141.84;43.90;18858.75;5081418;28;20219;-52
2024/03/19 09:09:15;;;;;;;6.30;5.70;;;7.80;99.90;;;-141.84;43.81;18850.63;5080852;28;20218;-51
2024/03/19 09:11:42;;;;;;;9.07;5.63;;;7.90;99.90;;;-141.84;44.04;18856.72;5078858;28;20250;-53
2024/03/19 09:14:11;;;;;;;9.03;5.50;;;7.90;99.90;;;-141.84;43.50;18844.53;5078257;28;20247;-53
2024/03/19 09:16:38;;;;;;;8.30;5.87;;;8.00;99.90;;;-141.84;43.33;18848.59;5078324;28;20705;-53
2024/03/19 09:19:05;;;;;;;6.33;5.07;;;8.00;99.90;;;-141.84;43.54;18868.91;5056601;28;20213;-53
2024/03/19 09:21:33;;;;;;;7.37;5.53;;;8.10;99.90;;;-141.84;43.70;18864.84;5061367;28;20196;-51
2024/03/19 09:24:00;;;;;;;6.93;5.40;;;8.20;99.90;;;-141.84;43.42;18866.88;5078459;28;20217;-49
2024/03/19 09:26:27;;;;;;;6.53;5.27;;;8.20;99.90;;;-141.84;43.18;18903.44;5060338;28;20221;-50
2024/03/19 09:28:56;;;;;;;5.63;5.13;;;8.30;99.90;;;-141.84;42.68;18921.75;5068891;28;20971;-48
2024/03/19 09:31:25;;;;;;;6.10;5.50;;;8.20;99.90;;;-141.84;42.61;18893.28;5081006;28;20223;-50
2024/03/19 09:33:52;;;;;;;6.13;4.90;;;8.30;99.90;;;-141.84;42.78;18911.56;5072505;28;20201;-53
2024/03/19 09:36:19;;;;;;;5.60;4.47;;;8.40;99.90;;;-141.84;42.37;18915.63;5080586;28;20219;-51
2024/03/19 09:38:48;;;;;;;4.57;4.07;;;8.50;99.90;;;-141.84;41.51;18929.88;5063482;28;20228;-51
2024/03/19 09:41:16;;;;;;;6.13;5.50;;;8.50;99.90;;;-141.84;42.74;18956.28;5063358;28;20216;-53
2024/03/19 09:43:48;;;;;;;5.50;4.90;;;8.40;99.90;;;-141.84;42.53;18925.81;5068517;28;20221;-48
2024/03/19 09:46:16;;;;;;;7.13;5.10;;;8.60;99.90;;;-141.84;41.71;18962.38;5061157;28;20612;-50
2024/03/19 09:48:46;;;;;;;6.20;5.00;;;8.70;99.90;;;-141.84;41.70;18956.28;5086207;28;20533;-52
2024/03/19 09:51:21;;;;;;;6.17;4.77;;;8.90;99.90;;;-141.84;41.45;18970.50;5060217;28;20219;-52
2024/03/19 09:53:48;;;;;;;6.00;5.40;;;9.00;99.90;;;-141.84;41.23;18984.72;5068499;28;20226;-53
2024/03/19 09:56:19;;;;;;;5.40;4.90;;;9.10;99.90;;;-141.84;41.13;18982.69;5071353;28;20231;-54
2024/03/19 09:58:50;;;;;;;5.00;4.20;;;9.20;99.90;;;-141.84;40.67;18964.41;5080471;28;20230;-53
2024/03/19 10:01:18;;;;;;;6.87;5.50;;;9.10;99.90;;;-141.84;40.64;18978.63;5072516;28;20591;-52
2024/03/19 10:03:49;;;;;;;5.83;5.00;;;9.20;99.90;;;-141.84;40.77;18956.28;5081142;28;20246;-50
2024/03/19 10:06:17;;;;;;;5.40;4.80;;;9.20;99.90;;;-141.84;40.79;18966.44;5077786;28;20225;-52
2024/03/19 10:08:46;;;;;;;8.73;5.93;;;9.20;99.90;;;-141.84;41.20;18998.94;5077914;28;20236;-51
2024/03/19 10:11:14;;;;;;;7.03;5.90;;;9.30;99.90;;;-141.84;41.69;19035.53;5077412;28;20266;-51
2024/03/19 10:13:42;;;;;;;7.50;5.70;;;9.40;99.90;;;-141.84;41.78;18992.84;5077430;28;20712;-51
2024/03/19 10:16:09;;;;;;;6.60;5.63;;;9.40;99.90;;;-141.84;41.83;18998.94;5060358;28;20212;-49